Aeroporto :
LOGIN :

Iscrizione | Disclaimer

   EN    FR    IT 

 










Sommario :    VFR   VFR Marginale   IFR   IFR Intensivo   IFR Molto Intensivo
Visibilità : 
Base nubi : 
>= 8 km
>= 3000ft
5 / 8 km
1000 / 3000 ft
1500m / 5 km
500 / 1000 ft
800 / 1500m
200 / 500 ft
< 800m
< 200 ft
Simboli :   Temporali  Nebbia  Neve Forte  Precipitazioni Forti  Vento > 20 kt
SIGMETs :   Varie  Temporali  Ghiacco  Turbolenza  Onda orograficha  Ceneri Vulcaniche







- Altitudine del aeroporto : 458 ft
- Carte del aeroporto


LFSI - St-Dizier

ULTIMO METAR :
  • 241300Z AUTO 11005KT 050V170 CAVOK 29/10 Q1018

METARs OBSOLETI :
  • 241230Z AUTO 08004KT 030V180 CAVOK 29/09 Q1019
  • 241200Z AUTO VRB04KT CAVOK 29/12 Q1019
  • 241130Z AUTO 09006KT 050V150 CAVOK 28/11 Q1019
  • 241100Z AUTO VRB03KT CAVOK 27/12 Q1019
  • 241030Z AUTO 11004KT 050V140 CAVOK 27/12 Q1020

TAF TAF LFSI
Valido dal 24 a 09 ore il 25 a 09 ore UTC


240800Z 2409/2509 07005KT CAVOK
Nessun NOTAM noto per questo aeroporto.



MetMap, La meteo Aeronautica in un colpo d'occhio ! - Copyright ORBIFLY Dicembre 2007 - Disclaimer

ORBIFLY MET'MAP TEAM :

Programmazione e sviluppo : Alexandra Zaïnal
Concezione e sviluppo : Baudouin d'Aumeries
Co-Programmazione e sviluppo : Marc-Olivier Méhu
Supporto tecnico e logistico : Manuel Goepfert
Aiuto per la traduzione : Arnaldo La Scala

Contatto : metmap@orbifly.com




FONTI E CREDITI :

   NOAA